sensor_id;sensor_type;location;lat;lon;timestamp;P1;durP1;ratioP1;P2;durP2;ratioP2
61505;SDS011;47366;51.916;4.574;2023-03-03T00:00:45;2.25;;;1.30;;
61505;SDS011;47366;51.916;4.574;2023-03-03T00:03:11;3.53;;;2.13;;
61505;SDS011;47366;51.916;4.574;2023-03-03T00:05:40;4.20;;;2.70;;
61505;SDS011;47366;51.916;4.574;2023-03-03T00:08:06;2.90;;;2.20;;
61505;SDS011;47366;51.916;4.574;2023-03-03T00:10:32;2.60;;;1.50;;
61505;SDS011;47366;51.916;4.574;2023-03-03T00:12:57;2.80;;;2.20;;
61505;SDS011;47366;51.916;4.574;2023-03-03T00:15:24;2.72;;;1.75;;
61505;SDS011;47366;51.916;4.574;2023-03-03T00:17:51;2.50;;;1.58;;
61505;SDS011;47366;51.916;4.574;2023-03-03T00:20:34;3.30;;;2.17;;
61505;SDS011;47366;51.916;4.574;2023-03-03T00:25:33;1.83;;;1.52;;
61505;SDS011;47366;51.916;4.574;2023-03-03T00:28:00;3.00;;;2.25;;
61505;SDS011;47366;51.916;4.574;2023-03-03T00:30:37;2.58;;;1.33;;
61505;SDS011;47366;51.916;4.574;2023-03-03T00:33:02;3.50;;;1.30;;
61505;SDS011;47366;51.916;4.574;2023-03-03T00:35:43;2.37;;;1.60;;
61505;SDS011;47366;51.916;4.574;2023-03-03T00:38:10;3.97;;;1.80;;
61505;SDS011;47366;51.916;4.574;2023-03-03T00:40:39;2.20;;;1.50;;
61505;SDS011;47366;51.916;4.574;2023-03-03T00:43:38;5.03;;;2.05;;
61505;SDS011;47366;51.916;4.574;2023-03-03T00:46:00;3.40;;;2.20;;
61505;SDS011;47366;51.916;4.574;2023-03-03T00:48:44;8.90;;;3.20;;
61505;SDS011;47366;51.916;4.574;2023-03-03T00:51:28;3.00;;;2.08;;
61505;SDS011;47366;51.916;4.574;2023-03-03T00:53:55;3.08;;;1.98;;
61505;SDS011;47366;51.916;4.574;2023-03-03T00:56:21;3.95;;;1.98;;
61505;SDS011;47366;51.916;4.574;2023-03-03T00:58:46;7.57;;;2.90;;
61505;SDS011;47366;51.916;4.574;2023-03-03T01:01:12;5.57;;;3.60;;
61505;SDS011;47366;51.916;4.574;2023-03-03T01:03:38;5.32;;;3.17;;
61505;SDS011;47366;51.916;4.574;2023-03-03T01:06:03;2.50;;;1.90;;
61505;SDS011;47366;51.916;4.574;2023-03-03T01:08:29;9.85;;;2.08;;
61505;SDS011;47366;51.916;4.574;2023-03-03T01:10:55;3.90;;;2.60;;
61505;SDS011;47366;51.916;4.574;2023-03-03T01:13:25;5.90;;;3.05;;
61505;SDS011;47366;51.916;4.574;2023-03-03T01:15:52;3.60;;;2.33;;
61505;SDS011;47366;51.916;4.574;2023-03-03T01:18:18;4.38;;;2.78;;
61505;SDS011;47366;51.916;4.574;2023-03-03T01:20:43;3.10;;;2.33;;
61505;SDS011;47366;51.916;4.574;2023-03-03T01:23:09;7.18;;;3.17;;
61505;SDS011;47366;51.916;4.574;2023-03-03T01:25:35;3.20;;;2.50;;
61505;SDS011;47366;51.916;4.574;2023-03-03T01:28:00;2.50;;;1.70;;
61505;SDS011;47366;51.916;4.574;2023-03-03T01:30:26;4.13;;;2.40;;
61505;SDS011;47366;51.916;4.574;2023-03-03T01:32:51;2.67;;;2.35;;
61505;SDS011;47366;51.916;4.574;2023-03-03T01:35:17;2.15;;;1.70;;
61505;SDS011;47366;51.916;4.574;2023-03-03T01:37:42;5.22;;;2.53;;
61505;SDS011;47366;51.916;4.574;2023-03-03T01:40:12;3.97;;;2.00;;
61505;SDS011;47366;51.916;4.574;2023-03-03T01:50:59;2.25;;;1.63;;
61505;SDS011;47366;51.916;4.574;2023-03-03T01:53:32;22.63;;;2.28;;
61505;SDS011;47366;51.916;4.574;2023-03-03T01:56:00;3.85;;;2.03;;
61505;SDS011;47366;51.916;4.574;2023-03-03T01:58:30;4.53;;;1.65;;
61505;SDS011;47366;51.916;4.574;2023-03-03T02:01:04;2.35;;;1.35;;
61505;SDS011;47366;51.916;4.574;2023-03-03T02:03:33;3.65;;;2.10;;
61505;SDS011;47366;51.916;4.574;2023-03-03T02:06:00;1.13;;;1.02;;
61505;SDS011;47366;51.916;4.574;2023-03-03T02:08:31;2.35;;;1.65;;
61505;SDS011;47366;51.916;4.574;2023-03-03T02:11:20;3.45;;;2.58;;
61505;SDS011;47366;51.916;4.574;2023-03-03T02:13:46;3.63;;;2.00;;
61505;SDS011;47366;51.916;4.574;2023-03-03T02:16:11;2.30;;;1.17;;
61505;SDS011;47366;51.916;4.574;2023-03-03T02:18:37;2.83;;;2.42;;
61505;SDS011;47366;51.916;4.574;2023-03-03T02:21:05;2.42;;;1.88;;
61505;SDS011;47366;51.916;4.574;2023-03-03T02:26:15;1.38;;;1.10;;
61505;SDS011;47366;51.916;4.574;2023-03-03T02:28:52;1.52;;;1.42;;
61505;SDS011;47366;51.916;4.574;2023-03-03T02:31:18;3.40;;;1.15;;
61505;SDS011;47366;51.916;4.574;2023-03-03T02:33:47;2.70;;;2.10;;
61505;SDS011;47366;51.916;4.574;2023-03-03T02:36:15;4.85;;;1.55;;
61505;SDS011;47366;51.916;4.574;2023-03-03T02:44:16;4.03;;;2.17;;
61505;SDS011;47366;51.916;4.574;2023-03-03T02:46:50;1.48;;;0.90;;
61505;SDS011;47366;51.916;4.574;2023-03-03T02:49:18;3.88;;;1.70;;
61505;SDS011;47366;51.916;4.574;2023-03-03T02:51:47;3.38;;;1.15;;
61505;SDS011;47366;51.916;4.574;2023-03-03T02:54:13;5.57;;;1.75;;
61505;SDS011;47366;51.916;4.574;2023-03-03T02:56:39;1.80;;;1.45;;
61505;SDS011;47366;51.916;4.574;2023-03-03T02:59:05;3.78;;;2.53;;
61505;SDS011;47366;51.916;4.574;2023-03-03T03:01:30;1.48;;;1.20;;
61505;SDS011;47366;51.916;4.574;2023-03-03T03:04:01;1.48;;;1.10;;
61505;SDS011;47366;51.916;4.574;2023-03-03T03:06:30;4.57;;;1.65;;
61505;SDS011;47366;51.916;4.574;2023-03-03T03:08:55;2.95;;;1.60;;
61505;SDS011;47366;51.916;4.574;2023-03-03T03:11:21;1.67;;;1.42;;
61505;SDS011;47366;51.916;4.574;2023-03-03T03:13:46;1.88;;;1.50;;
61505;SDS011;47366;51.916;4.574;2023-03-03T03:16:12;2.42;;;1.92;;
61505;SDS011;47366;51.916;4.574;2023-03-03T03:18:37;4.03;;;2.58;;
61505;SDS011;47366;51.916;4.574;2023-03-03T03:21:06;2.90;;;1.65;;
61505;SDS011;47366;51.916;4.574;2023-03-03T03:23:34;1.75;;;1.23;;
61505;SDS011;47366;51.916;4.574;2023-03-03T03:26:00;5.38;;;2.55;;
61505;SDS011;47366;51.916;4.574;2023-03-03T03:28:25;4.43;;;2.08;;
61505;SDS011;47366;51.916;4.574;2023-03-03T03:30:51;3.50;;;2.08;;
61505;SDS011;47366;51.916;4.574;2023-03-03T03:33:16;2.95;;;1.85;;
61505;SDS011;47366;51.916;4.574;2023-03-03T03:35:41;5.32;;;1.60;;
61505;SDS011;47366;51.916;4.574;2023-03-03T03:38:09;4.22;;;2.15;;
61505;SDS011;47366;51.916;4.574;2023-03-03T03:40:36;2.70;;;1.58;;
61505;SDS011;47366;51.916;4.574;2023-03-03T03:43:01;1.80;;;0.82;;
61505;SDS011;47366;51.916;4.574;2023-03-03T03:45:27;3.85;;;2.30;;
61505;SDS011;47366;51.916;4.574;2023-03-03T03:47:52;2.45;;;1.85;;
61505;SDS011;47366;51.916;4.574;2023-03-03T03:50:17;7.63;;;1.70;;
61505;SDS011;47366;51.916;4.574;2023-03-03T03:52:43;5.72;;;2.60;;
61505;SDS011;47366;51.916;4.574;2023-03-03T03:55:08;1.77;;;1.25;;
61505;SDS011;47366;51.916;4.574;2023-03-03T03:57:35;4.20;;;2.75;;
61505;SDS011;47366;51.916;4.574;2023-03-03T04:00:00;4.43;;;2.13;;
61505;SDS011;47366;51.916;4.574;2023-03-03T04:02:26;4.55;;;2.97;;
61505;SDS011;47366;51.916;4.574;2023-03-03T04:04:51;4.63;;;2.67;;
61505;SDS011;47366;51.916;4.574;2023-03-03T04:07:16;2.80;;;2.03;;
61505;SDS011;47366;51.916;4.574;2023-03-03T04:09:41;3.92;;;2.45;;
61505;SDS011;47366;51.916;4.574;2023-03-03T04:12:07;4.13;;;2.63;;
61505;SDS011;47366;51.916;4.574;2023-03-03T04:14:32;5.72;;;2.47;;
61505;SDS011;47366;51.916;4.574;2023-03-03T04:16:57;2.90;;;2.13;;
61505;SDS011;47366;51.916;4.574;2023-03-03T04:19:23;4.20;;;2.08;;
61505;SDS011;47366;51.916;4.574;2023-03-03T04:21:48;4.90;;;2.42;;
61505;SDS011;47366;51.916;4.574;2023-03-03T04:24:14;3.78;;;2.00;;
61505;SDS011;47366;51.916;4.574;2023-03-03T04:26:40;4.57;;;2.80;;
61505;SDS011;47366;51.916;4.574;2023-03-03T04:29:05;3.22;;;1.63;;
61505;SDS011;47366;51.916;4.574;2023-03-03T04:31:31;3.70;;;2.15;;
61505;SDS011;47366;51.916;4.574;2023-03-03T04:33:56;3.75;;;2.17;;
61505;SDS011;47366;51.916;4.574;2023-03-03T04:36:22;2.88;;;1.60;;
61505;SDS011;47366;51.916;4.574;2023-03-03T04:38:47;2.55;;;1.95;;
61505;SDS011;47366;51.916;4.574;2023-03-03T04:41:13;2.30;;;1.77;;
61505;SDS011;47366;51.916;4.574;2023-03-03T04:43:39;2.67;;;2.20;;
61505;SDS011;47366;51.916;4.574;2023-03-03T04:46:04;2.28;;;1.50;;
61505;SDS011;47366;51.916;4.574;2023-03-03T04:48:30;7.18;;;1.98;;
61505;SDS011;47366;51.916;4.574;2023-03-03T04:50:55;5.18;;;2.58;;
61505;SDS011;47366;51.916;4.574;2023-03-03T04:53:20;2.03;;;1.38;;
61505;SDS011;47366;51.916;4.574;2023-03-03T04:55:48;5.70;;;3.17;;
61505;SDS011;47366;51.916;4.574;2023-03-03T04:58:14;2.92;;;2.08;;
61505;SDS011;47366;51.916;4.574;2023-03-03T05:00:39;4.47;;;1.75;;
61505;SDS011;47366;51.916;4.574;2023-03-03T05:03:05;2.80;;;1.92;;
61505;SDS011;47366;51.916;4.574;2023-03-03T05:05:31;4.32;;;2.17;;
61505;SDS011;47366;51.916;4.574;2023-03-03T05:07:56;2.50;;;2.03;;
61505;SDS011;47366;51.916;4.574;2023-03-03T05:10:21;3.13;;;2.22;;
61505;SDS011;47366;51.916;4.574;2023-03-03T05:12:47;4.20;;;1.00;;
61505;SDS011;47366;51.916;4.574;2023-03-03T05:15:12;9.10;;;2.85;;
61505;SDS011;47366;51.916;4.574;2023-03-03T05:17:37;3.83;;;2.33;;
61505;SDS011;47366;51.916;4.574;2023-03-03T05:20:03;2.75;;;1.50;;
61505;SDS011;47366;51.916;4.574;2023-03-03T05:22:29;3.90;;;2.30;;
61505;SDS011;47366;51.916;4.574;2023-03-03T05:24:55;3.85;;;2.15;;
61505;SDS011;47366;51.916;4.574;2023-03-03T05:27:21;6.90;;;2.03;;
61505;SDS011;47366;51.916;4.574;2023-03-03T05:29:47;3.70;;;2.50;;
61505;SDS011;47366;51.916;4.574;2023-03-03T05:32:12;3.42;;;1.45;;
61505;SDS011;47366;51.916;4.574;2023-03-03T05:34:38;2.08;;;1.45;;
61505;SDS011;47366;51.916;4.574;2023-03-03T05:37:03;1.77;;;1.45;;
61505;SDS011;47366;51.916;4.574;2023-03-03T05:39:30;3.40;;;2.15;;
61505;SDS011;47366;51.916;4.574;2023-03-03T05:41:57;2.60;;;1.88;;
61505;SDS011;47366;51.916;4.574;2023-03-03T05:44:24;5.10;;;2.05;;
61505;SDS011;47366;51.916;4.574;2023-03-03T05:46:49;1.77;;;1.05;;
61505;SDS011;47366;51.916;4.574;2023-03-03T05:49:15;3.60;;;2.40;;
61505;SDS011;47366;51.916;4.574;2023-03-03T05:51:40;2.35;;;1.85;;
61505;SDS011;47366;51.916;4.574;2023-03-03T05:54:05;6.30;;;2.38;;
61505;SDS011;47366;51.916;4.574;2023-03-03T05:56:31;4.07;;;1.88;;
61505;SDS011;47366;51.916;4.574;2023-03-03T05:58:56;3.15;;;1.25;;
61505;SDS011;47366;51.916;4.574;2023-03-03T06:01:21;2.42;;;1.58;;
61505;SDS011;47366;51.916;4.574;2023-03-03T06:03:46;2.50;;;1.70;;
61505;SDS011;47366;51.916;4.574;2023-03-03T06:06:12;1.92;;;1.55;;
61505;SDS011;47366;51.916;4.574;2023-03-03T06:08:38;3.83;;;1.95;;
61505;SDS011;47366;51.916;4.574;2023-03-03T06:11:03;4.22;;;1.50;;
61505;SDS011;47366;51.916;4.574;2023-03-03T06:13:29;3.78;;;1.95;;
61505;SDS011;47366;51.916;4.574;2023-03-03T06:15:54;3.67;;;1.92;;
61505;SDS011;47366;51.916;4.574;2023-03-03T06:18:19;3.95;;;1.65;;
61505;SDS011;47366;51.916;4.574;2023-03-03T06:20:49;4.63;;;2.33;;
61505;SDS011;47366;51.916;4.574;2023-03-03T06:23:15;6.85;;;2.72;;
61505;SDS011;47366;51.916;4.574;2023-03-03T06:25:40;8.00;;;3.22;;
61505;SDS011;47366;51.916;4.574;2023-03-03T06:28:06;3.60;;;1.80;;
61505;SDS011;47366;51.916;4.574;2023-03-03T06:30:32;3.47;;;1.77;;
61505;SDS011;47366;51.916;4.574;2023-03-03T06:32:57;3.55;;;1.83;;
61505;SDS011;47366;51.916;4.574;2023-03-03T06:35:23;1.90;;;1.60;;
61505;SDS011;47366;51.916;4.574;2023-03-03T06:37:48;8.02;;;2.28;;
61505;SDS011;47366;51.916;4.574;2023-03-03T06:40:14;3.95;;;2.05;;
61505;SDS011;47366;51.916;4.574;2023-03-03T06:42:40;3.05;;;2.22;;
61505;SDS011;47366;51.916;4.574;2023-03-03T06:45:05;5.90;;;2.63;;
61505;SDS011;47366;51.916;4.574;2023-03-03T06:47:31;2.75;;;2.17;;
61505;SDS011;47366;51.916;4.574;2023-03-03T06:49:57;4.55;;;2.15;;
61505;SDS011;47366;51.916;4.574;2023-03-03T06:52:24;3.47;;;2.53;;
61505;SDS011;47366;51.916;4.574;2023-03-03T06:54:54;1.92;;;1.52;;
61505;SDS011;47366;51.916;4.574;2023-03-03T06:57:24;6.80;;;2.90;;
61505;SDS011;47366;51.916;4.574;2023-03-03T06:59:53;4.20;;;2.85;;
61505;SDS011;47366;51.916;4.574;2023-03-03T07:02:21;6.57;;;2.53;;
61505;SDS011;47366;51.916;4.574;2023-03-03T07:04:47;3.95;;;1.80;;
61505;SDS011;47366;51.916;4.574;2023-03-03T07:07:15;4.97;;;2.05;;
61505;SDS011;47366;51.916;4.574;2023-03-03T07:09:46;1.38;;;1.00;;
61505;SDS011;47366;51.916;4.574;2023-03-03T07:12:14;5.88;;;2.70;;
61505;SDS011;47366;51.916;4.574;2023-03-03T07:14:44;3.13;;;2.13;;
61505;SDS011;47366;51.916;4.574;2023-03-03T07:17:18;3.63;;;2.10;;
61505;SDS011;47366;51.916;4.574;2023-03-03T07:19:44;2.67;;;2.10;;
61505;SDS011;47366;51.916;4.574;2023-03-03T07:22:18;1.02;;;0.85;;
61505;SDS011;47366;51.916;4.574;2023-03-03T07:24:46;3.42;;;2.13;;
61505;SDS011;47366;51.916;4.574;2023-03-03T07:27:27;3.88;;;2.63;;
61505;SDS011;47366;51.916;4.574;2023-03-03T07:30:00;2.97;;;1.67;;
61505;SDS011;47366;51.916;4.574;2023-03-03T07:32:44;1.35;;;0.90;;
61505;SDS011;47366;51.916;4.574;2023-03-03T07:38:00;1.30;;;0.65;;
61505;SDS011;47366;51.916;4.574;2023-03-03T07:40:28;3.60;;;3.00;;
61505;SDS011;47366;51.916;4.574;2023-03-03T07:43:00;2.45;;;1.40;;
61505;SDS011;47366;51.916;4.574;2023-03-03T07:45:40;4.90;;;1.77;;
61505;SDS011;47366;51.916;4.574;2023-03-03T07:48:13;1.92;;;1.67;;
61505;SDS011;47366;51.916;4.574;2023-03-03T07:50:49;1.53;;;1.27;;
61505;SDS011;47366;51.916;4.574;2023-03-03T07:53:28;2.85;;;1.88;;
61505;SDS011;47366;51.916;4.574;2023-03-03T07:55:59;2.20;;;1.70;;
61505;SDS011;47366;51.916;4.574;2023-03-03T08:04:07;2.00;;;1.33;;
61505;SDS011;47366;51.916;4.574;2023-03-03T08:06:44;7.38;;;2.13;;
61505;SDS011;47366;51.916;4.574;2023-03-03T08:14:35;3.00;;;2.03;;
61505;SDS011;47366;51.916;4.574;2023-03-03T08:17:06;2.38;;;1.88;;
61505;SDS011;47366;51.916;4.574;2023-03-03T08:19:41;2.33;;;1.55;;
61505;SDS011;47366;51.916;4.574;2023-03-03T08:22:40;4.70;;;2.17;;
61505;SDS011;47366;51.916;4.574;2023-03-03T08:25:02;5.28;;;2.40;;
61505;SDS011;47366;51.916;4.574;2023-03-03T08:27:28;1.17;;;1.08;;
61505;SDS011;47366;51.916;4.574;2023-03-03T08:29:53;3.40;;;1.90;;
61505;SDS011;47366;51.916;4.574;2023-03-03T08:32:20;1.15;;;1.00;;
61505;SDS011;47366;51.916;4.574;2023-03-03T08:34:45;3.22;;;1.92;;
61505;SDS011;47366;51.916;4.574;2023-03-03T08:37:10;1.70;;;1.13;;
61505;SDS011;47366;51.916;4.574;2023-03-03T08:39:36;1.77;;;1.55;;
61505;SDS011;47366;51.916;4.574;2023-03-03T08:42:01;6.82;;;2.55;;
61505;SDS011;47366;51.916;4.574;2023-03-03T08:44:27;3.45;;;2.17;;
61505;SDS011;47366;51.916;4.574;2023-03-03T08:46:52;3.25;;;2.03;;
61505;SDS011;47366;51.916;4.574;2023-03-03T08:49:17;4.93;;;2.42;;
61505;SDS011;47366;51.916;4.574;2023-03-03T08:51:43;1.52;;;1.30;;
61505;SDS011;47366;51.916;4.574;2023-03-03T08:54:08;2.33;;;1.65;;
61505;SDS011;47366;51.916;4.574;2023-03-03T08:56:33;5.32;;;1.60;;
61505;SDS011;47366;51.916;4.574;2023-03-03T08:58:59;4.25;;;2.20;;
61505;SDS011;47366;51.916;4.574;2023-03-03T09:01:24;3.67;;;0.75;;
61505;SDS011;47366;51.916;4.574;2023-03-03T09:03:50;1.58;;;1.25;;
61505;SDS011;47366;51.916;4.574;2023-03-03T09:06:15;3.10;;;1.58;;
61505;SDS011;47366;51.916;4.574;2023-03-03T09:08:40;2.40;;;1.38;;
61505;SDS011;47366;51.916;4.574;2023-03-03T09:11:10;5.13;;;1.63;;
61505;SDS011;47366;51.916;4.574;2023-03-03T09:13:37;2.67;;;1.92;;
61505;SDS011;47366;51.916;4.574;2023-03-03T09:16:06;3.10;;;1.92;;
61505;SDS011;47366;51.916;4.574;2023-03-03T09:18:37;1.35;;;1.08;;
61505;SDS011;47366;51.916;4.574;2023-03-03T09:21:17;1.08;;;0.88;;
61505;SDS011;47366;51.916;4.574;2023-03-03T09:31:50;3.17;;;2.40;;
61505;SDS011;47366;51.916;4.574;2023-03-03T09:37:28;2.63;;;1.60;;
61505;SDS011;47366;51.916;4.574;2023-03-03T09:40:00;1.58;;;1.33;;
61505;SDS011;47366;51.916;4.574;2023-03-03T09:43:12;5.03;;;1.50;;
61505;SDS011;47366;51.916;4.574;2023-03-03T09:48:37;4.18;;;2.45;;
61505;SDS011;47366;51.916;4.574;2023-03-03T09:56:42;3.30;;;1.50;;
61505;SDS011;47366;51.916;4.574;2023-03-03T10:02:04;2.08;;;1.17;;
61505;SDS011;47366;51.916;4.574;2023-03-03T10:05:09;3.60;;;2.17;;
61505;SDS011;47366;51.916;4.574;2023-03-03T10:16:30;1.77;;;1.30;;
61505;SDS011;47366;51.916;4.574;2023-03-03T10:22:02;3.33;;;1.73;;
61505;SDS011;47366;51.916;4.574;2023-03-03T10:33:22;3.13;;;1.83;;
61505;SDS011;47366;51.916;4.574;2023-03-03T10:36:00;2.42;;;1.35;;
61505;SDS011;47366;51.916;4.574;2023-03-03T10:38:36;2.03;;;1.17;;
61505;SDS011;47366;51.916;4.574;2023-03-03T10:49:50;1.65;;;1.10;;
61505;SDS011;47366;51.916;4.574;2023-03-03T10:52:33;1.70;;;0.98;;
61505;SDS011;47366;51.916;4.574;2023-03-03T10:55:23;3.67;;;1.38;;
61505;SDS011;47366;51.916;4.574;2023-03-03T10:58:02;1.75;;;0.88;;
61505;SDS011;47366;51.916;4.574;2023-03-03T11:06:01;2.53;;;1.30;;
61505;SDS011;47366;51.916;4.574;2023-03-03T11:08:42;2.42;;;1.27;;
61505;SDS011;47366;51.916;4.574;2023-03-03T11:22:12;2.05;;;1.00;;
61505;SDS011;47366;51.916;4.574;2023-03-03T11:30:29;2.50;;;1.23;;
61505;SDS011;47366;51.916;4.574;2023-03-03T11:41:05;1.63;;;0.95;;
61505;SDS011;47366;51.916;4.574;2023-03-03T11:43:40;2.55;;;1.00;;
61505;SDS011;47366;51.916;4.574;2023-03-03T11:51:30;1.00;;;0.70;;
61505;SDS011;47366;51.916;4.574;2023-03-03T11:56:45;3.00;;;1.08;;
61505;SDS011;47366;51.916;4.574;2023-03-03T11:59:29;1.45;;;0.75;;
61505;SDS011;47366;51.916;4.574;2023-03-03T12:02:19;1.25;;;0.70;;
61505;SDS011;47366;51.916;4.574;2023-03-03T12:05:10;1.52;;;0.93;;
61505;SDS011;47366;51.916;4.574;2023-03-03T12:07:53;1.45;;;0.77;;
61505;SDS011;47366;51.916;4.574;2023-03-03T12:10:31;0.93;;;0.60;;
61505;SDS011;47366;51.916;4.574;2023-03-03T12:13:08;0.80;;;0.60;;
61505;SDS011;47366;51.916;4.574;2023-03-03T12:18:29;0.98;;;0.47;;
61505;SDS011;47366;51.916;4.574;2023-03-03T12:37:44;0.75;;;0.70;;
61505;SDS011;47366;51.916;4.574;2023-03-03T12:40:24;0.52;;;0.38;;
61505;SDS011;47366;51.916;4.574;2023-03-03T12:43:18;2.10;;;0.45;;
61505;SDS011;47366;51.916;4.574;2023-03-03T12:45:59;1.85;;;1.02;;
61505;SDS011;47366;51.916;4.574;2023-03-03T12:48:36;1.80;;;0.77;;
61505;SDS011;47366;51.916;4.574;2023-03-03T12:51:11;1.98;;;0.98;;
61505;SDS011;47366;51.916;4.574;2023-03-03T12:53:48;0.98;;;0.60;;
61505;SDS011;47366;51.916;4.574;2023-03-03T13:05:00;3.75;;;0.52;;
61505;SDS011;47366;51.916;4.574;2023-03-03T13:10:09;1.98;;;0.57;;
61505;SDS011;47366;51.916;4.574;2023-03-03T13:12:45;0.80;;;0.60;;
61505;SDS011;47366;51.916;4.574;2023-03-03T13:20:53;0.32;;;0.25;;
61505;SDS011;47366;51.916;4.574;2023-03-03T13:25:54;0.73;;;0.50;;
61505;SDS011;47366;51.916;4.574;2023-03-03T13:30:51;1.48;;;0.45;;
61505;SDS011;47366;51.916;4.574;2023-03-03T13:36:00;0.70;;;0.50;;
61505;SDS011;47366;51.916;4.574;2023-03-03T13:41:08;2.17;;;0.35;;
61505;SDS011;47366;51.916;4.574;2023-03-03T13:43:50;1.90;;;0.88;;
61505;SDS011;47366;51.916;4.574;2023-03-03T13:51:56;0.65;;;0.50;;
61505;SDS011;47366;51.916;4.574;2023-03-03T13:54:57;0.70;;;0.55;;
61505;SDS011;47366;51.916;4.574;2023-03-03T13:57:36;0.88;;;0.50;;
61505;SDS011;47366;51.916;4.574;2023-03-03T14:00:29;1.83;;;0.70;;
61505;SDS011;47366;51.916;4.574;2023-03-03T14:02:59;0.50;;;0.50;;
61505;SDS011;47366;51.916;4.574;2023-03-03T14:05:47;1.33;;;0.70;;
61505;SDS011;47366;51.916;4.574;2023-03-03T14:08:20;1.65;;;0.65;;
61505;SDS011;47366;51.916;4.574;2023-03-03T14:13:33;5.55;;;1.00;;
61505;SDS011;47366;51.916;4.574;2023-03-03T14:16:14;1.38;;;0.47;;
61505;SDS011;47366;51.916;4.574;2023-03-03T14:21:32;0.68;;;0.52;;
61505;SDS011;47366;51.916;4.574;2023-03-03T14:24:06;0.93;;;0.57;;
61505;SDS011;47366;51.916;4.574;2023-03-03T14:26:44;0.90;;;0.70;;
61505;SDS011;47366;51.916;4.574;2023-03-03T14:29:33;0.68;;;0.57;;
61505;SDS011;47366;51.916;4.574;2023-03-03T14:32:00;1.00;;;0.57;;
61505;SDS011;47366;51.916;4.574;2023-03-03T14:34:39;0.68;;;0.40;;
61505;SDS011;47366;51.916;4.574;2023-03-03T14:42:52;0.22;;;0.22;;
61505;SDS011;47366;51.916;4.574;2023-03-03T14:47:45;1.33;;;0.38;;
61505;SDS011;47366;51.916;4.574;2023-03-03T14:50:28;6.57;;;0.65;;
61505;SDS011;47366;51.916;4.574;2023-03-03T14:53:09;0.40;;;0.38;;
61505;SDS011;47366;51.916;4.574;2023-03-03T14:55:38;0.95;;;0.70;;
61505;SDS011;47366;51.916;4.574;2023-03-03T14:58:07;1.60;;;0.55;;
61505;SDS011;47366;51.916;4.574;2023-03-03T15:00:48;1.48;;;0.82;;
61505;SDS011;47366;51.916;4.574;2023-03-03T15:03:19;0.68;;;0.43;;
61505;SDS011;47366;51.916;4.574;2023-03-03T15:05:48;0.30;;;0.30;;
61505;SDS011;47366;51.916;4.574;2023-03-03T15:08:15;0.63;;;0.47;;
61505;SDS011;47366;51.916;4.574;2023-03-03T15:13:41;2.38;;;0.70;;
61505;SDS011;47366;51.916;4.574;2023-03-03T15:16:16;1.08;;;0.70;;
61505;SDS011;47366;51.916;4.574;2023-03-03T15:18:52;0.50;;;0.50;;
61505;SDS011;47366;51.916;4.574;2023-03-03T15:21:28;0.68;;;0.50;;
61505;SDS011;47366;51.916;4.574;2023-03-03T15:23:58;0.68;;;0.50;;
61505;SDS011;47366;51.916;4.574;2023-03-03T15:26:52;1.02;;;0.70;;
61505;SDS011;47366;51.916;4.574;2023-03-03T15:29:28;0.20;;;0.20;;
61505;SDS011;47366;51.916;4.574;2023-03-03T15:35:24;0.80;;;0.55;;
61505;SDS011;47366;51.916;4.574;2023-03-03T15:40:45;3.95;;;1.00;;
61505;SDS011;47366;51.916;4.574;2023-03-03T15:49:01;1.35;;;0.68;;
61505;SDS011;47366;51.916;4.574;2023-03-03T15:54:56;2.25;;;0.98;;
61505;SDS011;47366;51.916;4.574;2023-03-03T16:08:11;1.75;;;0.88;;
61505;SDS011;47366;51.916;4.574;2023-03-03T16:27:40;1.30;;;1.03;;
61505;SDS011;47366;51.916;4.574;2023-03-03T16:30:24;1.00;;;0.82;;
61505;SDS011;47366;51.916;4.574;2023-03-03T16:41:59;1.70;;;0.98;;
61505;SDS011;47366;51.916;4.574;2023-03-03T16:53:05;1.40;;;1.20;;
61505;SDS011;47366;51.916;4.574;2023-03-03T17:08:43;1.33;;;0.80;;
61505;SDS011;47366;51.916;4.574;2023-03-03T17:14:41;1.05;;;0.82;;
61505;SDS011;47366;51.916;4.574;2023-03-03T17:25:22;0.77;;;0.70;;
61505;SDS011;47366;51.916;4.574;2023-03-03T17:31:18;1.00;;;0.45;;
61505;SDS011;47366;51.916;4.574;2023-03-03T18:20:56;1.05;;;0.73;;
61505;SDS011;47366;51.916;4.574;2023-03-03T18:23:38;4.38;;;0.85;;
61505;SDS011;47366;51.916;4.574;2023-03-03T18:28:52;8.48;;;0.55;;
61505;SDS011;47366;51.916;4.574;2023-03-03T18:31:31;4.45;;;0.85;;
61505;SDS011;47366;51.916;4.574;2023-03-03T18:39:44;0.20;;;0.20;;
61505;SDS011;47366;51.916;4.574;2023-03-03T18:44:39;0.35;;;0.20;;
61505;SDS011;47366;51.916;4.574;2023-03-03T18:47:05;1.35;;;0.75;;
61505;SDS011;47366;51.916;4.574;2023-03-03T18:55:57;2.95;;;0.70;;
61505;SDS011;47366;51.916;4.574;2023-03-03T18:58:35;1.65;;;0.63;;
61505;SDS011;47366;51.916;4.574;2023-03-03T19:01:13;1.60;;;0.77;;
61505;SDS011;47366;51.916;4.574;2023-03-03T19:04:02;5.18;;;1.48;;
61505;SDS011;47366;51.916;4.574;2023-03-03T19:09:08;1.55;;;0.50;;
61505;SDS011;47366;51.916;4.574;2023-03-03T19:12:09;0.75;;;0.52;;
61505;SDS011;47366;51.916;4.574;2023-03-03T19:14:30;3.95;;;0.73;;
61505;SDS011;47366;51.916;4.574;2023-03-03T19:16:58;0.85;;;0.30;;
61505;SDS011;47366;51.916;4.574;2023-03-03T19:22:42;0.65;;;0.43;;
61505;SDS011;47366;51.916;4.574;2023-03-03T19:27:38;4.32;;;1.35;;
61505;SDS011;47366;51.916;4.574;2023-03-03T19:30:25;8.07;;;0.70;;
61505;SDS011;47366;51.916;4.574;2023-03-03T19:33:29;6.80;;;0.80;;
61505;SDS011;47366;51.916;4.574;2023-03-03T19:41:48;5.13;;;1.15;;
61505;SDS011;47366;51.916;4.574;2023-03-03T19:44:32;2.30;;;0.65;;
61505;SDS011;47366;51.916;4.574;2023-03-03T19:50:06;0.55;;;0.55;;
61505;SDS011;47366;51.916;4.574;2023-03-03T20:00:21;2.45;;;0.70;;
61505;SDS011;47366;51.916;4.574;2023-03-03T20:05:42;2.28;;;0.40;;
61505;SDS011;47366;51.916;4.574;2023-03-03T20:08:40;1.38;;;0.50;;
61505;SDS011;47366;51.916;4.574;2023-03-03T20:14:30;4.30;;;0.60;;
61505;SDS011;47366;51.916;4.574;2023-03-03T20:19:55;1.20;;;0.70;;
61505;SDS011;47366;51.916;4.574;2023-03-03T20:25:10;0.52;;;0.22;;
61505;SDS011;47366;51.916;4.574;2023-03-03T20:28:02;5.88;;;0.57;;
61505;SDS011;47366;51.916;4.574;2023-03-03T20:38:55;2.38;;;0.88;;
61505;SDS011;47366;51.916;4.574;2023-03-03T20:41:41;0.65;;;0.47;;
61505;SDS011;47366;51.916;4.574;2023-03-03T20:52:14;1.52;;;0.47;;
61505;SDS011;47366;51.916;4.574;2023-03-03T21:05:33;2.22;;;0.73;;
61505;SDS011;47366;51.916;4.574;2023-03-03T21:08:08;6.93;;;1.08;;
61505;SDS011;47366;51.916;4.574;2023-03-03T21:10:34;7.00;;;1.40;;
61505;SDS011;47366;51.916;4.574;2023-03-03T21:16:02;1.33;;;0.63;;
61505;SDS011;47366;51.916;4.574;2023-03-03T21:18:33;0.77;;;0.68;;
61505;SDS011;47366;51.916;4.574;2023-03-03T21:20:58;0.95;;;0.70;;
61505;SDS011;47366;51.916;4.574;2023-03-03T21:23:24;1.52;;;0.75;;
61505;SDS011;47366;51.916;4.574;2023-03-03T21:25:53;2.47;;;1.33;;
61505;SDS011;47366;51.916;4.574;2023-03-03T21:39:00;4.45;;;1.10;;
61505;SDS011;47366;51.916;4.574;2023-03-03T21:41:26;6.93;;;0.93;;
61505;SDS011;47366;51.916;4.574;2023-03-03T21:43:52;6.03;;;1.05;;
61505;SDS011;47366;51.916;4.574;2023-03-03T21:46:18;2.08;;;0.82;;
61505;SDS011;47366;51.916;4.574;2023-03-03T21:48:48;2.75;;;0.90;;
61505;SDS011;47366;51.916;4.574;2023-03-03T21:51:15;0.28;;;0.28;;
61505;SDS011;47366;51.916;4.574;2023-03-03T21:53:41;5.63;;;0.73;;
61505;SDS011;47366;51.916;4.574;2023-03-03T21:56:08;1.27;;;0.60;;
61505;SDS011;47366;51.916;4.574;2023-03-03T21:58:38;5.18;;;0.57;;
61505;SDS011;47366;51.916;4.574;2023-03-03T22:01:06;2.13;;;0.70;;
61505;SDS011;47366;51.916;4.574;2023-03-03T22:03:32;1.77;;;0.85;;
61505;SDS011;47366;51.916;4.574;2023-03-03T22:05:58;2.53;;;0.43;;
61505;SDS011;47366;51.916;4.574;2023-03-03T22:08:24;2.25;;;0.57;;
61505;SDS011;47366;51.916;4.574;2023-03-03T22:10:49;3.33;;;0.93;;